17 mei 2022

Tijd Code Weer Temp. Zicht Wolken Wind METAR/SPECI
16:25
V
26 °C 10 km+ 6.500 ft 160°   160° 6 kt METAR EHEH 171425Z AUTO 16006KT 100V230 9999 SCT058 BKN065 OVC160 26/13 Q1018 BLU NOSIG
15:55
V
27 °C 10 km+ - 140°   140° 6 kt METAR EHEH 171355Z AUTO 14006KT 080V250 9999 NCD 27/12 Q1018 BLU NOSIG
15:25
V
27 °C 10 km+ 7.500 ft 130°   130° 8 kt METAR EHEH 171325Z AUTO 13008KT 090V220 9999 FEW057 BKN075 27/13 Q1019 BLU NOSIG
14:55
V
26 °C 10 km+ 5.100 ft 160°   160° 7 kt METAR EHEH 171255Z AUTO 16007KT 070V190 9999 BKN051 BKN056 BKN064 26/13 Q1019 BLU NOSIG
14:25
V
26 °C 10 km+ 37.000 ft 140°   140° 9 kt METAR EHEH 171225Z AUTO 14009KT 080V200 9999 FEW057 OVC370 26/12 Q1019 BLU NOSIG
13:55
V
24 °C 10 km+ 36.000 ft 140°   140° 8 kt METAR EHEH 171155Z AUTO 14008KT 070V200 9999 FEW074 OVC360 24/13 Q1019 BLU NOSIG
13:25
V
23 °C 10 km+ 11.000 ft 140°   140° 8 kt METAR EHEH 171125Z AUTO 14008KT 070V220 9999 FEW058 BKN110 23/13 Q1020 BLU NOSIG
12:55
V
22 °C 10 km+ 11.000 ft 130°   130° 7 kt METAR EHEH 171055Z AUTO 13007KT 100V260 9999 FEW079 OVC110 22/13 Q1020 BLU NOSIG
12:25
V
21 °C 10 km+ 6.800 ft Var   Var 8 kt METAR EHEH 171025Z AUTO VRB08KT 9999 FEW053 BKN068 OVC074 21/12 Q1020 BLU NOSIG
11:55
V
20 °C 10 km+ 7.800 ft 120°   120° 5 kt METAR EHEH 170955Z AUTO 12005KT 070V210 9999 FEW052 OVC078 20/14 Q1021 REDZ BLU NOSIG
11:25
V
19 °C 10 km+ 7.400 ft Var   Var 2 kt METAR EHEH 170925Z AUTO VRB02KT 9999 -RA FEW052 SCT066 BKN074 19/14 Q1021 RERA REDZ BLU TEMPO SCT030CB
10:55
V
18 °C 10 km+ 5.600 ft Var   Var 2 kt METAR EHEH 170855Z AUTO VRB02KT 9999 BKN056 OVC062 18/13 Q1021 BLU TEMPO SCT030CB
10:25
V
18 °C 10 km+ 7.000 ft Var   Var 2 kt METAR EHEH 170825Z AUTO VRB02KT 9999 SCT063 OVC070 18/13 Q1021 BLU TEMPO SCT030CB
09:55
V
17 °C 10 km+ 6.600 ft 030°   030° 3 kt METAR EHEH 170755Z AUTO 03003KT 350V050 9999 BKN066 OVC073 17/13 Q1021 BLU TEMPO SCT030CB
09:25
V
17 °C 10 km+ 6.600 ft 130°   130° 3 kt METAR EHEH 170725Z AUTO 13003KT 100V190 9999 FEW046 SCT060 OVC066 17/13 Q1021 BLU TEMPO SCT030CB
09:16
V
16 °C 10 km+ 6.800 ft Var   Var 2 kt METAR EHEH 170716Z AUTO VRB02KT 9999 BKN068 OVC073 16/13 Q1021 BLU NOSIG
09:00
V
16 °C 10 km+ 7.500 ft Var   Var 2 kt METAR EHEH 170700Z AUTO VRB02KT 9999 FEW063 SCT069 OVC075 16/13 Q1021 BLU NOSIG
08:55
V
16 °C 10 km+ 6.900 ft Var   Var 2 kt METAR EHEH 170655Z AUTO VRB02KT 9999 SCT063 OVC069 16/12 Q1021 BLU NOSIG
08:25
V
16 °C 10 km+ 8.100 ft Var   000° 0 kt METAR EHEH 170625Z AUTO 00000KT 9999 OVC081 16/13 Q1021 BLU NOSIG
07:55
V
15 °C 10 km+ 8.800 ft 200°   200° 3 kt METAR EHEH 170555Z AUTO 20003KT 9999 FEW078 OVC088 15/13 Q1021 BLU NOSIG
07:37
V
15 °C 10 km+ 9.000 ft 210°   210° 2 kt METAR EHEH 170537Z AUTO 21002KT 9999 FEW061 OVC090 15/13 Q1020 BLU NOSIG
07:33
M
14 °C 5 km 9.000 ft 200°   200° 2 kt METAR EHEH 170533Z AUTO 20002KT 5000 BR FEW062 OVC090 14/13 Q1020 WHT NOSIG
07:25
V
14 °C 10 km+ 9.000 ft 190°   190° 3 kt METAR EHEH 170525Z AUTO 19003KT 9999 SCT065 BKN090 OVC095 14/13 Q1020 BLU NOSIG
06:55
V
13 °C 10 km+ 8.700 ft Var   Var 2 kt METAR EHEH 170455Z AUTO VRB02KT 9999 FEW081 OVC087 13/12 Q1020 BLU NOSIG
06:25
V
13 °C 10 km+ 10.000 ft 160°   160° 2 kt METAR EHEH 170425Z AUTO 16002KT 9999 FEW072 BKN100 OVC290 13/12 Q1020 BLU NOSIG
05:55
V
12 °C 10 km+ 10.000 ft 170°   170° 2 kt METAR EHEH 170355Z AUTO 17002KT 9999 OVC100 12/11 Q1020 BLU
05:25
V
12 °C 10 km+ 10.000 ft 160°   160° 2 kt METAR EHEH 170325Z AUTO 16002KT 9999 OVC100 12/11 Q1020 BLU
04:55
V
13 °C 10 km+ 6.700 ft 140°   140° 2 kt METAR EHEH 170255Z AUTO 14002KT 9999 BKN067 OVC074 13/12 Q1020 BLU
04:25
V
13 °C 10 km+ 8.900 ft 240°   240° 2 kt METAR EHEH 170225Z AUTO 24002KT 9999 BKN089 OVC094 13/11 Q1020 BLU
03:55
V
13 °C 10 km+ 8.800 ft 200°   200° 1 kt METAR EHEH 170155Z AUTO 20001KT 9999 SCT082 BKN088 OVC100 13/11 Q1020 BLU
03:25
V
12 °C 10 km+ 19.000 ft 180°   180° 2 kt METAR EHEH 170125Z AUTO 18002KT 9999 BKN190 BKN260 12/11 Q1020 BLU
02:55
V
11 °C 10 km+ 9.900 ft 180°   180° 3 kt METAR EHEH 170055Z AUTO 18003KT 9999 BKN099 OVC100 11/11 Q1020 BLU
02:25
V
11 °C 10 km+ - Var   Var 1 kt METAR EHEH 170025Z AUTO VRB01KT 9999 SCT250 11/10 Q1020 BLU
01:55
V
12 °C 10 km+ 24.000 ft 170°   170° 1 kt METAR EHEH 162355Z AUTO 17001KT 9999 OVC240 12/11 Q1020 BLU
01:25
V
12 °C 10 km+ 25.000 ft 160°   160° 2 kt METAR EHEH 162325Z AUTO 16002KT 9999 BKN250 12/11 Q1020 BLU
00:55
V
12 °C 10 km+ 26.000 ft 180°   180° 3 kt METAR EHEH 162255Z AUTO 18003KT 9999 BKN260 12/11 Q1020 BLU
00:25
V
13 °C 10 km+ - 220°   220° 2 kt METAR EHEH 162225Z AUTO 22002KT 9999 NCD 13/11 Q1020 BLU

16 mei 2022

Tijd Code Weer Temp. Zicht Wolken Wind METAR/SPECI
23:55
V
14 °C 10 km+ - 250°   250° 3 kt METAR EHEH 162155Z AUTO 25003KT 9999 NCD 14/11 Q1020 BLU
23:31
V
15 °C 10 km+ - 260°   260° 3 kt METAR EHEH 162131Z AUTO 26003KT 240V300 9999 NCD 15/11 Q1020 BLU
23:25
V
15 °C 10 km+ - 250°   250° 3 kt METAR EHEH 162125Z AUTO 25003KT 210V300 9999 NCD 15/12 Q1020 BLU NOSIG
22:55
V
15 °C 10 km+ - 250°   250° 3 kt METAR EHEH 162055Z AUTO 25003KT 9999 NCD 15/12 Q1019 BLU NOSIG
22:25
V
15 °C 10 km+ - 270°   270° 2 kt METAR EHEH 162025Z AUTO 27002KT 9999 NCD 15/13 Q1019 BLU NOSIG
21:55
V
16 °C 10 km+ - 250°   250° 2 kt METAR EHEH 161955Z AUTO 25002KT 9999 NCD 16/13 Q1019 BLU NOSIG
21:25
V
19 °C 10 km+ - 290°   290° 3 kt METAR EHEH 161925Z AUTO 29003KT 240V340 9999 NCD 19/13 Q1019 BLU NOSIG
20:55
V
20 °C 10 km+ - 280°   280° 4 kt METAR EHEH 161855Z AUTO 28004KT 220V330 9999 NCD 20/13 Q1018 BLU NOSIG
20:25
V
21 °C 10 km+ - 290°   290° 6 kt METAR EHEH 161825Z AUTO 29006KT 240V310 9999 NCD 21/13 Q1018 BLU NOSIG
19:55
V
22 °C 10 km+ - 270°   270° 6 kt METAR EHEH 161755Z AUTO 27006KT 220V340 9999 FEW039 SCT046 22/12 Q1018 BLU NOSIG
19:25
V
22 °C 10 km+ - 260°   260° 7 kt METAR EHEH 161725Z AUTO 26007KT 210V290 9999 FEW041 SCT045 22/12 Q1018 BLU NOSIG
18:55
V
22 °C 10 km+ 3.800 ft 270°   270° 9 kt METAR EHEH 161655Z AUTO 27009KT 220V310 9999 BKN038 BKN045 22/13 Q1017 BLU NOSIG
18:25
V
22 °C 10 km+ 18.000 ft 280°   280° 10 kt METAR EHEH 161625Z AUTO 28010KT 220V310 9999 FEW041 OVC180 22/13 Q1017 BLU NOSIG
17:55
V
22 °C 10 km+ 3.800 ft 270°   270° 10 kt METAR EHEH 161555Z AUTO 27010KT 230V320 9999 BKN038 BKN042 OVC140 22/13 Q1017 BLU NOSIG
17:25
V
22 °C 10 km+ 4.100 ft 260°   260° 9 kt METAR EHEH 161525Z AUTO 26009KT 230V340 9999 SCT036 BKN041 OVC045 22/13 Q1017 BLU NOSIG
16:55
V
22 °C 10 km+ 4.100 ft 250°   250° 10 kt METAR EHEH 161455Z AUTO 25010KT 200V300 9999 SCT036 BKN041 OVC045 22/14 Q1017 BLU NOSIG
16:25
V
21 °C 10 km+ 10.000 ft 240°   240° 10 kt METAR EHEH 161425Z AUTO 24010KT 210V290 9999 FEW045 SCT091 OVC100 21/14 Q1016 BLU NOSIG
15:55
V
21 °C 10 km+ 11.000 ft 260°   260° 7 kt METAR EHEH 161355Z AUTO 26007KT 220V320 9999 FEW022 SCT045 OVC110 21/16 Q1016 BLU TEMPO 25015G25KT 4500 SHRA SCT020 SCT025CB BKN035
15:26
M
21 °C 10 km+ 2.100 ft 270°   270° 8 kt METAR EHEH 161326Z AUTO 27008KT 220V340 9999 FEW018 BKN021 OVC025 21/16 Q1016 WHT TEMPO 25015G25KT 4500 SHRA SCT020 SCT025CB BKN035
15:25
M
21 °C 10 km+ 2.100 ft 270°   270° 8 kt METAR EHEH 161325Z AUTO 27008KT 220V300 9999 SCT018 OVC021 21/16 Q1016 WHT TEMPO 25015G27KT 3000 SHRA TSRA SCT025CB SCT040
14:55
M
20 °C 10 km+ 1.900 ft 250°   250° 9 kt METAR EHEH 161255Z AUTO 25009KT 240V340 9999 BKN019 OVC022 20/16 Q1016 WHT TEMPO 25015G27KT 3000 SHRA TSRA SCT025CB SCT040
14:25
M
21 °C 10 km+ 2.400 ft 250°   250° 13 kt METAR EHEH 161225Z AUTO 25013KT 210V300 9999 BKN024 OVC028 21/16 Q1016 RETS WHT TEMPO 25015G27KT 3000 SHRA TSRA SCT025CB SCT040
13:55
V
22 °C 10 km+ 3.400 ft 250°   250° 11 kt METAR EHEH 161155Z AUTO 25011KT 210V280 9999 FEW026CB BKN034 OVC038 22/15 Q1015 BLU TEMPO 25015G27KT 3000 SHRA TSRA SCT025CB SCT040
13:25
V
22 °C 10 km+ 3.200 ft 230°   230° 10 kt METAR EHEH 161125Z AUTO 23010KT 200V290 9999 BKN032 OVC038 22/16 Q1015 BLU TEMPO 25015G27KT 3000 SHRA TSRA SCT025CB SCT040
12:55
V
22 °C 10 km+ 5.900 ft 220°   220° 7 kt METAR EHEH 161055Z AUTO 22007KT 200V270 9999 FEW015CB BKN059 OVC068 22/18 Q1015 RERA BLU TEMPO 25015G27KT 3000 SHRA TSRA SCT025CB SCT040
12:43
V
21 °C 10 km+ 6.100 ft 230°   230° 7 kt METAR EHEH 161043Z AUTO 23007KT 200V270 9999 FEW015CB OVC061 21/18 Q1015 BLU TEMPO 25015G27KT 3000 SHRA TSRA SCT025CB SCT040
12:33
V
19 °C 10 km+ 4.100 ft 230°   230° 14 kt METAR EHEH 161033Z AUTO 23014KT 190V260 9999 SHRA FEW002 FEW015CB SCT031 BKN041 19/17 Q1015 BLU TEMPO 25015G27KT 3000 SHRA TSRA SCT025CB SCT040
12:29
I
19 °C 4,7 km 8.100 ft 230°   230° 17 kt METAR EHEH 161029Z AUTO 23017KT 190V250 4700 +SHRA FEW015CB SCT048 BKN081 19/16 Q1015 GRN TEMPO 25015G27KT 3000 SHRA TSRA SCT025CB SCT040
12:25
M
20 °C 5 km 8.100 ft 230°   230° 17 kt METAR EHEH 161025Z AUTO 23017KT 190V260 5000 SHRA FEW018CB BKN081 OVC086 20/16 Q1014 WHT TEMPO 25015G27KT 3000 SHRA TSRA SCT025CB SCT040
11:55
V
27 °C 10 km+ 8.400 ft 220°   220° 12 kt METAR EHEH 160955Z AUTO 22012KT 170V260 9999 OVC084/// 27/14 Q1014 BLU NOSIG
11:25
V
26 °C 10 km+ 17.000 ft 250°   250° 10 kt METAR EHEH 160925Z AUTO 25010KT 180V270 9999 OVC170 26/14 Q1014 BLU NOSIG
10:55
V
26 °C 10 km+ 16.000 ft 230°   230° 11 kt METAR EHEH 160855Z AUTO 23011KT 180V250 9999 BKN160 BKN360 26/13 Q1013 BLU NOSIG
10:25
V
24 °C 10 km+ - 220°   220° 11 kt METAR EHEH 160825Z AUTO 22011KT 190V270 9999 NCD 24/13 Q1013 BLU NOSIG
09:55
V
21 °C 10 km+ 11.000 ft 190°   190° 6 kt METAR EHEH 160755Z AUTO 19006KT 9999 OVC110 21/13 Q1013 BLU NOSIG
09:25
V
20 °C 10 km+ 9.400 ft 190°   190° 5 kt METAR EHEH 160725Z AUTO 19005KT 170V240 9999 BKN094 OVC100 20/12 Q1013 BLU NOSIG
08:55
V
19 °C 10 km+ 10.000 ft 200°   200° 7 kt METAR EHEH 160655Z AUTO 20007KT 170V240 9999 FEW076 OVC100 19/11 Q1013 BLU NOSIG
08:25
V
18 °C 10 km+ 9.300 ft 190°   190° 3 kt METAR EHEH 160625Z AUTO 19003KT 9999 OVC093 18/11 Q1013 BLU NOSIG
07:55
V
18 °C 10 km+ 10.000 ft 170°   170° 5 kt METAR EHEH 160555Z AUTO 17005KT 140V220 9999 OVC100 18/10 Q1013 BLU NOSIG
07:25
V
17 °C 10 km+ 14.000 ft 150°   150° 4 kt METAR EHEH 160525Z AUTO 15004KT 130V220 9999 OVC140 17/10 Q1012 BLU NOSIG
07:09
V
17 °C 10 km+ 10.000 ft 130°   130° 4 kt METAR EHEH 160509Z AUTO 13004KT 100V190 9999 SCT094 BKN100 OVC150 17/10 Q1012 BLU NOSIG
06:57
V
16 °C 10 km+ 9.800 ft 130°   130° 5 kt METAR EHEH 160457Z AUTO 13005KT 120V190 9999 SCT091 BKN098 OVC160 16/10 Q1012 BLACKBLU NOSIG
06:55
V
16 °C 10 km+ 16.000 ft 130°   130° 5 kt METAR EHEH 160455Z AUTO 13005KT 090V190 9999 SCT091 SCT098 OVC160 16/10 Q1012 BLU NOSIG
06:25
V
15 °C 10 km+ 14.000 ft 140°   140° 5 kt METAR EHEH 160425Z AUTO 14005KT 120V190 9999 OVC140 15/10 Q1012 BLU NOSIG
05:55
V
16 °C 10 km+ - 130°   130° 6 kt METAR EHEH 160355Z AUTO 13006KT 110V170 9999 FEW086 SCT240 16/09 Q1012 BLU
05:25
V
16 °C 10 km+ - 140°   140° 5 kt METAR EHEH 160325Z AUTO 14005KT 110V170 9999 FEW082 16/09 Q1012 BLU
04:55
V
17 °C 10 km+ - 120°   120° 6 kt METAR EHEH 160255Z AUTO 12006KT 100V160 9999 SCT180 17/09 Q1012 BLU
04:25
V
17 °C 10 km+ 34.000 ft 120°   120° 6 kt METAR EHEH 160225Z AUTO 12006KT 090V160 9999 BKN340 17/09 Q1013 BLU
03:55
V
17 °C 10 km+ 34.000 ft 110°   110° 5 kt METAR EHEH 160155Z AUTO 11005KT 070V160 9999 OVC340 17/09 Q1013 BLU
03:25
V
18 °C 10 km+ 27.000 ft 100°   100° 4 kt METAR EHEH 160125Z AUTO 10004KT 060V140 9999 OVC270 18/09 Q1013 BLU
02:55
V
18 °C 10 km+ 29.000 ft 100°   100° 4 kt METAR EHEH 160055Z AUTO 10004KT 040V130 9999 OVC290 18/09 Q1013 BLU
02:25
V
18 °C 10 km+ 31.000 ft 090°   090° 6 kt METAR EHEH 160025Z AUTO 09006KT 9999 OVC310 18/09 Q1013 BLU
01:55
V
18 °C 10 km+ 32.000 ft 080°   080° 5 kt METAR EHEH 152355Z AUTO 08005KT 9999 OVC320 18/09 Q1013 BLU
01:25
V
19 °C 10 km+ 34.000 ft 090°   090° 6 kt METAR EHEH 152325Z AUTO 09006KT 9999 OVC340 19/09 Q1014 BLU
00:55
V
20 °C 10 km+ 18.000 ft 090°   090° 7 kt METAR EHEH 152255Z AUTO 09007KT 9999 OVC180 20/09 Q1014 BLU
00:25
V
20 °C 10 km+ - 080°   080° 6 kt METAR EHEH 152225Z AUTO 08006KT 050V110 9999 SCT180 20/09 Q1014 BLU

15 mei 2022

Tijd Code Weer Temp. Zicht Wolken Wind METAR/SPECI
23:55
V
20 °C 10 km+ - 080°   080° 6 kt METAR EHEH 152155Z AUTO 08006KT 050V130 9999 FEW230 20/09 Q1015 BLU
23:25
V
21 °C 10 km+ - 080°   080° 6 kt METAR EHEH 152125Z AUTO 08006KT 050V120 9999 NCD 21/09 Q1015 BLU
23:21
V
21 °C 10 km+ - 080°   080° 6 kt METAR EHEH 152121Z AUTO 08006KT 050V120 9999 NCD 21/09 Q1015 BLU
22:55
V
21 °C 10 km+ - 070°   070° 6 kt METAR EHEH 152055Z AUTO 07006KT 050V110 9999 NCD 21/08 Q1015 BLU NOSIG
22:25
V
21 °C 10 km+ - 080°   080° 6 kt METAR EHEH 152025Z AUTO 08006KT 9999 NCD 21/08 Q1014 BLU NOSIG
21:55
V
22 °C 10 km+ - 070°   070° 6 kt METAR EHEH 151955Z AUTO 07006KT 040V100 9999 NCD 22/07 Q1014 BLU NOSIG
21:25
V
23 °C 10 km+ - 070°   070° 8 kt METAR EHEH 151925Z AUTO 07008KT 040V100 9999 NCD 23/07 Q1014 BLU NOSIG
20:55
V
24 °C 10 km+ - 070°   070° 8 kt METAR EHEH 151855Z AUTO 07008KT 030V090 9999 FEW200 24/07 Q1014 BLU NOSIG
20:25
V
25 °C 10 km+ - 070°   070° 8 kt METAR EHEH 151825Z AUTO 07008KT 050V110 9999 SCT200 25/06 Q1014 BLU NOSIG
19:55
V
26 °C 10 km+ - 080°   080° 8 kt METAR EHEH 151755Z AUTO 08008KT 050V110 9999 NCD 26/06 Q1014 BLU NOSIG
19:25
V
26 °C 10 km+ - 080°   080° 9 kt METAR EHEH 151725Z AUTO 08009KT 040V130 9999 FEW250 26/06 Q1014 BLU NOSIG
18:55
V
26 °C 10 km+ - 100°   100° 6 kt METAR EHEH 151655Z AUTO 10006KT 040V140 9999 SCT250 26/07 Q1015 BLU NOSIG
18:25
V
27 °C 10 km+ 24.000 ft 110°   110° 6 kt METAR EHEH 151625Z AUTO 11006KT 010V170 9999 OVC240 27/07 Q1015 BLU NOSIG
17:55
V
27 °C 10 km+ 21.000 ft 110°   110° 6 kt METAR EHEH 151555Z AUTO 11006KT 030V150 9999 OVC210 27/07 Q1015 BLU NOSIG
17:25
V
27 °C 10 km+ 20.000 ft 100°   100° 5 kt METAR EHEH 151525Z AUTO 10005KT 050V160 9999 OVC200 27/07 Q1016 BLU NOSIG
16:55
V
26 °C 10 km+ 21.000 ft 090°   090° 8 kt METAR EHEH 151455Z AUTO 09008KT 020V140 9999 OVC210 26/06 Q1016 BLU NOSIG
Oudere gegevens

Installeer onze app

Gemakkelijke toegang tot al het luchtvaartweer op je mobiele telefoon en tablet.
Met veel functies die niet op de website beschikbaar zijn, zoals offline ondersteuning en een persoonlijke lijst van vliegvelden.